Aviation Digital Data Service (ADDS)

Output produced by METARs form (2358 UTC 15 February 2019)
found at http://www.aviationweather.gov/metar/data/
 
Forecast for: LROP (BUCHAREST/OTOPEN, RO)
Text: TAF LROP 152300Z 1600/1624 25008KT 9999 BKN035
Forecast period: 0000 UTC 16 February 2019 to 0000 UTC 17 February 2019
Forecast type: FROM: standard forecast or significant change
Winds: from the WSW (250 degrees) at 9 MPH (8 knots; 4.1 m/s)
Visibility: 6 or more miles 10+ km)
Ceiling: 3500 feet AGL
Clouds: broken clouds at 3500 feet AGL
Weather: no significant weather forecast for this period
Text: PROB30
Forecast period: 0100 to 0600 UTC 16 February 2019
Forecast type: TEMPORARY: The following changes expected for less than half the time period
Visibility: 1.86 miles (2.99 km)
Ceiling: 1000 feet AGL
Clouds: broken clouds at 1000 feet AGL
Weather: BR  (mist)